Latest Weather Observations for Carnarvon

IDW60801

Issued at 9:33 pm WST Monday 26 June 2017 (issued every 30 minutes, with the page automatically refreshed every 10 minutes)

About weather observations | Map of weather stations | Latest weather observations for WA | Other Formats
Station Details ID: 006011 Name: CARNARVON AIRPORT Lat: -24.89 Lon: 113.67 Height: 4.0 m
Data from the previous 72 hours. | See also: Recent months at Carnarvon
Date/Time
WST
Temp
°C
App
Temp
°C
Dew
Point
°C
Rel
Hum
%
Delta-T
°C
Wind Press
QNH
hPa
Press
MSL
hPa
Rain since
9am
mm
Dir  Spd
km/h
Gust
km/h
Spd
kts
Gust
kts
26/09:30pm 16.3 12.4 10.8 70 2.9 S 22 28 12 15 1022.7 - 0.0
26/09:00pm 16.5 11.7 10.4 67 3.2 S 26 33 14 18 1022.5 1022.5 0.0
26/08:30pm 16.8 11.9 10.1 64 3.5 S 26 32 14 17 1022.2 - 0.0
26/08:00pm 17.0 12.0 7.9 55 4.6 S 24 30 13 16 1022.0 - 0.0
26/07:30pm 17.0 11.8 7.4 53 4.8 S 24 28 13 15 1021.6 - 0.0
26/07:00pm 17.2 12.5 7.6 53 4.8 S 22 28 12 15 1021.4 - 0.0
26/06:30pm 17.3 12.2 7.8 53 4.8 S 24 30 13 16 1021.3 - 0.0
26/06:00pm 17.8 12.0 7.9 52 5.0 S 28 33 15 18 1021.1 1021.1 0.0
26/05:30pm 18.5 12.3 7.9 50 5.4 S 30 39 16 21 1021.1 - 0.0
26/05:00pm 19.1 12.6 8.2 49 5.6 S 32 39 17 21 1020.7 - 0.0
26/04:30pm 19.8 11.9 6.4 41 6.7 S 37 46 20 25 1020.3 - 0.0
26/04:00pm 19.9 12.6 7.3 44 6.4 S 35 46 19 25 1020.3 - 0.0
26/03:30pm 20.3 12.9 6.8 41 6.8 S 35 46 19 25 1020.1 - 0.0
26/03:00pm 20.0 12.8 9.2 49 5.7 S 37 48 20 26 1020.1 1020.1 0.0
26/02:30pm 20.0 13.5 10.3 53 5.2 S 35 46 19 25 1020.3 - 0.0
26/02:00pm 20.1 13.9 10.2 53 5.3 S 33 43 18 23 1020.6 - 0.0
26/01:30pm 19.4 14.3 10.7 57 4.7 S 28 39 15 21 1020.5 - 0.0
26/01:00pm 22.3 15.8 4.5 31 8.7 SSE 28 39 15 21 1020.7 - 0.0
26/12:46pm 22.4 15.2 3.1 28 9.2 SE 30 52 16 28 1020.9 - 0.0
26/12:30pm 21.9 14.7 3.2 29 8.9 SSE 30 44 16 24 1021.2 - 0.0
26/12:00pm 22.2 15.6 4.0 30 8.8 SE 28 35 15 19 1021.7 1021.7 0.0
26/11:30am 21.0 14.9 4.8 34 7.9 SE 26 37 14 20 1022.0 - 0.0
26/11:00am 20.2 13.8 5.0 37 7.4 ESE 28 37 15 20 1022.5 - 0.0
26/10:30am 19.6 13.6 5.5 39 6.9 ESE 26 33 14 18 1022.8 - 0.0
26/10:00am 18.8 12.9 5.7 42 6.4 ESE 26 33 14 18 1022.9 - 0.0
26/09:30am 18.1 12.1 5.5 43 6.1 ESE 26 35 14 19 1022.9 - 0.0
26/09:00am 16.7 11.0 5.1 46 5.5 SE 24 32 13 17 1022.7 1022.7 0.0
26/08:30am 14.8 9.4 4.4 49 4.8 SE 22 28 12 15 1022.3 - 0.0
26/08:00am 12.8 8.1 3.3 52 4.2 SE 17 22 9 12 1022.1 - 0.0
26/07:30am 11.3 7.0 3.3 58 3.5 SE 15 20 8 11 1021.7 - 0.0
26/07:00am 10.7 6.4 3.1 59 3.3 SE 15 19 8 10 1021.2 - 0.0
26/06:30am 11.4 6.7 3.1 56 3.6 SE 17 20 9 11 1021.0 - 0.0
26/06:00am 11.6 6.9 3.4 57 3.6 SE 17 19 9 10 1021.0 1021.0 0.0
26/05:30am 11.5 6.9 3.6 58 3.5 SE 17 20 9 11 1020.6 - 0.0
26/05:00am 11.3 7.1 3.6 59 3.4 SE 15 19 8 10 1020.4 - 0.0
26/04:30am 10.9 6.7 3.9 62 3.1 SE 15 17 8 9 1020.4 - 0.0
26/04:00am 11.5 7.3 3.8 59 3.4 SSE 15 17 8 9 1020.5 - 0.0
26/03:30am 11.9 7.8 4.3 59 3.4 SSE 15 17 8 9 1020.6 - 0.0
26/03:00am 12.7 8.6 4.3 56 3.8 SE 15 19 8 10 1020.6 1020.6 0.0
26/02:30am 12.6 8.1 4.4 57 3.7 S 17 19 9 10 1020.6 - 0.0
26/02:00am 11.8 8.1 4.5 61 3.3 SSE 13 15 7 8 1020.6 - 0.0
26/01:30am 13.3 10.0 4.8 56 3.9 SSE 11 15 6 8 1020.4 - 0.0
26/01:00am 13.9 9.5 4.5 53 4.3 SE 17 20 9 11 1019.9 - 0.0
26/12:30am 14.7 10.3 4.8 51 4.6 SSE 17 20 9 11 1020.1 - 0.0
26/12:00am 14.6 10.2 5.0 52 4.5 SE 17 20 9 11 1020.1 1020.1 0.0
 
Date/Time
WST
Temp
°C
App
Temp
°C
Dew
Point
°C
Rel
Hum
%
Delta-T
°C
Wind Press
QNH
hPa
Press
MSL
hPa
Rain since
9am
mm
Dir  Spd
km/h
Gust
km/h
Spd
kts
Gust
kts
25/11:30pm 15.4 10.8 5.5 51 4.7 SE 19 22 10 12 1020.4 - 0.0
25/11:00pm 16.1 11.7 6.7 53 4.6 SSE 19 22 10 12 1020.6 - 0.0
25/10:30pm 16.9 12.3 8.0 55 4.5 SSE 22 28 12 15 1020.3 - 0.0
25/10:00pm 17.5 13.6 10.8 65 3.6 SSE 22 28 12 15 1019.6 - 0.0
25/09:30pm 17.7 14.4 12.9 73 2.7 SSE 22 28 12 15 1019.0 - 0.0
25/09:00pm 18.0 14.4 13.0 72 2.8 S 24 32 13 17 1018.9 1018.9 0.0
25/08:30pm 18.3 13.9 12.9 71 3.0 S 28 37 15 20 1018.7 - 0.0
25/08:00pm 18.4 14.4 11.8 65 3.6 S 24 32 13 17 1018.8 - 0.0
25/07:30pm 18.8 14.3 10.2 57 4.6 S 24 32 13 17 1018.3 - 0.0
25/07:00pm 18.9 14.4 10.1 56 4.7 S 24 30 13 16 1017.9 - 0.0
25/06:30pm 19.1 14.6 9.9 55 4.9 S 24 30 13 16 1017.5 - 0.0
25/06:00pm 19.4 14.1 10.0 54 5.0 S 28 35 15 19 1017.1 1017.1 0.0
25/05:30pm 20.1 14.8 9.8 51 5.5 S 28 37 15 20 1016.9 - 0.0
25/05:00pm 20.9 14.5 9.2 47 6.2 S 33 44 18 24 1017.0 - 0.0
25/04:30pm 21.2 14.4 9.1 46 6.4 S 35 46 19 25 1017.1 - 0.0
25/04:00pm 20.9 14.6 11.1 53 5.4 S 35 46 19 25 1017.0 - 0.0
25/03:30pm 20.9 15.8 11.9 56 5.0 S 30 39 16 21 1017.0 - 0.0
25/03:00pm 20.2 14.1 11.7 58 4.7 S 35 44 19 24 1017.0 1017.0 0.0
25/02:30pm 20.5 14.8 11.9 57 4.8 S 33 43 18 23 1017.2 - 0.0
25/02:00pm 19.8 13.8 12.1 61 4.3 S 35 44 19 24 1017.2 - 0.0
25/01:30pm 20.0 14.3 11.2 57 4.8 S 32 41 17 22 1017.3 - 0.0
25/01:00pm 19.5 13.6 11.3 59 4.5 S 33 43 18 23 1017.7 - 0.0
25/12:30pm 19.6 14.7 11.4 59 4.5 S 28 33 15 18 1018.1 - 0.0
25/12:00pm 19.8 14.8 11.0 57 4.8 S 28 33 15 18 1018.7 1018.7 0.0
25/11:30am 20.7 16.3 7.4 42 6.8 SSE 20 28 11 15 1019.2 - 0.0
25/11:00am 20.5 15.6 7.1 42 6.8 SSE 22 30 12 16 1019.3 - 0.0
25/10:30am 19.3 14.1 7.2 45 6.1 SSE 24 30 13 16 1019.5 - 0.0
25/10:00am 18.8 12.9 7.3 47 5.8 SE 28 35 15 19 1019.7 - 0.0
25/09:30am 17.6 11.7 7.4 51 5.1 SSE 28 35 15 19 1019.7 - 0.0
25/09:00am 16.7 10.8 7.5 54 4.6 SSE 28 39 15 21 1019.6 1019.6 0.0
25/08:30am 15.8 10.4 7.8 59 4.0 SSE 26 33 14 18 1019.2 - 0.0
25/08:00am 14.2 9.8 7.5 64 3.3 SSE 20 26 11 14 1018.9 - 0.0
25/07:30am 12.8 8.5 7.0 68 2.8 SE 19 22 10 12 1018.5 - 0.0
25/07:00am 12.1 8.0 6.4 68 2.7 SE 17 20 9 11 1018.2 - 0.0
25/06:30am 12.0 7.9 6.3 68 2.7 SSE 17 20 9 11 1017.7 - 0.0
25/06:00am 12.0 8.3 6.3 68 2.7 SSE 15 19 8 10 1017.4 1017.4 0.0
25/05:30am 12.2 8.1 6.0 66 2.9 SE 17 19 9 10 1017.1 - 0.0
25/05:00am 12.8 8.7 6.0 63 3.2 SSE 17 20 9 11 1017.0 - 0.0
25/04:30am 12.8 9.1 6.3 64 3.1 SSE 15 19 8 10 1016.9 - 0.0
25/04:00am 13.9 10.2 6.1 59 3.7 SSE 15 19 8 10 1016.8 - 0.0
25/03:30am 14.6 10.4 5.8 55 4.2 SE 17 20 9 11 1016.8 - 0.0
25/03:00am 14.9 10.4 5.9 55 4.3 SE 19 24 10 13 1016.9 1016.9 0.0
25/02:30am 14.5 10.4 6.1 57 4.0 SE 17 20 9 11 1016.9 - 0.0
25/02:00am 14.8 10.3 6.8 58 3.9 SSE 20 24 11 13 1016.8 - 0.0
25/01:30am 14.7 10.9 7.6 62 3.5 SSE 17 19 9 10 1017.0 - 0.0
25/01:00am 15.1 11.7 9.0 67 3.1 SSE 17 20 9 11 1016.8 - 0.0
25/12:30am 15.5 12.4 10.4 71 2.7 SSE 17 20 9 11 1016.9 - 0.0
25/12:00am 15.6 12.9 10.3 70 2.8 SE 15 19 8 10 1016.6 1016.6 0.0
 
Date/Time
WST
Temp
°C
App
Temp
°C
Dew
Point
°C
Rel
Hum
%
Delta-T
°C
Wind Press
QNH
hPa
Press
MSL
hPa
Rain since
9am
mm
Dir  Spd
km/h
Gust
km/h
Spd
kts
Gust
kts
24/11:30pm 16.4 13.6 11.2 71 2.8 SE 17 19 9 10 1016.5 - 0.0
24/11:00pm 17.2 15.5 12.3 73 2.7 SSE 13 17 7 9 1016.5 - 0.0
24/10:30pm 17.9 16.0 12.9 72 2.8 SSE 15 19 8 10 1016.5 - 0.0
24/10:00pm 18.5 16.4 13.6 73 2.8 S 17 20 9 11 1016.2 - 0.0
24/09:30pm 19.1 17.2 14.1 73 2.9 S 17 22 9 12 1015.9 - 0.0
24/09:00pm 19.0 17.4 13.9 72 2.9 S 15 17 8 9 1015.7 1015.7 0.0
24/08:30pm 18.9 16.4 12.2 65 3.7 SSW 17 20 9 11 1015.5 - 0.0
24/08:00pm 19.1 16.0 12.1 64 3.9 S 20 24 11 13 1015.2 - 0.0
24/07:30pm 19.3 17.0 12.9 66 3.6 SSW 17 22 9 12 1015.0 - 0.0
24/07:00pm 19.1 16.7 12.5 65 3.7 SSW 17 20 9 11 1014.8 - 0.0
24/06:30pm 19.0 17.0 13.9 72 2.9 SSW 17 20 9 11 1014.4 - 0.0
24/06:00pm 19.1 16.6 12.3 64 3.8 SSW 17 20 9 11 1014.3 1014.3 0.0
24/05:30pm 19.9 17.2 11.8 59 4.5 SSW 17 20 9 11 1014.1 - 0.0
24/05:00pm 20.8 17.8 10.7 52 5.5 SSW 17 22 9 12 1013.8 - 0.0
24/04:30pm 21.6 18.3 9.7 46 6.4 SSW 17 22 9 12 1013.7 - 0.0
24/04:00pm 21.5 17.8 10.0 48 6.2 SSW 20 28 11 15 1013.7 - 0.0
24/03:30pm 21.8 17.9 10.7 49 6.1 S 22 28 12 15 1013.6 - 0.0
24/03:00pm 22.1 17.3 10.4 47 6.4 S 26 32 14 17 1013.6 1013.6 0.0
24/02:30pm 22.2 17.3 10.1 46 6.6 SSW 26 30 14 16 1013.7 - 0.0
24/02:00pm 22.3 18.5 9.7 44 6.8 SSW 20 26 11 14 1013.8 - 0.0
24/01:30pm 22.5 18.4 8.5 40 7.4 SSW 20 26 11 14 1014.2 - 0.0
24/01:00pm 22.9 18.6 9.3 42 7.3 SSW 22 28 12 15 1014.7 - 0.0
24/12:30pm 24.1 19.8 0.8 21 10.8 SSE 13 22 7 12 1014.9 - 0.0
24/12:00pm 23.9 19.4 0.0 20 10.9 ESE 13 22 7 12 1015.4 1015.4 0.0
24/11:30am 23.6 19.7 1.3 23 10.4 ESE 11 17 6 9 1015.9 - 0.0
24/11:00am 23.2 18.7 1.9 24 10.0 E 15 22 8 12 1016.2 - 0.0
24/10:30am 22.5 17.7 2.7 27 9.4 E 17 22 9 12 1016.4 - 0.0
24/10:00am 21.3 16.7 3.5 31 8.5 E 17 20 9 11 1016.7 - 0.0
24/09:30am 20.1 16.4 6.3 40 6.9 E 15 19 8 10 1016.6 - 0.0
24/09:00am 17.9 14.6 9.5 58 4.4 E 17 22 9 12 1016.5 1016.5 -
24/08:30am 15.7 13.3 10.0 69 3.0 E 13 20 7 11 1016.3 - -
24/08:00am 13.9 11.8 9.6 75 2.2 E 11 15 6 8 1016.3 - -
24/07:30am 12.4 9.8 9.2 81 1.6 E 13 15 7 8 1016.0 - -
24/07:00am 12.4 9.8 9.2 81 1.6 ENE 13 17 7 9 1015.8 - -
24/06:30am 12.9 10.0 9.8 81 1.6 ENE 15 19 8 10 1015.5 - -
24/06:00am 11.5 8.8 9.1 85 1.2 E 13 17 7 9 1015.3 1015.3 -
24/05:30am 11.0 8.5 8.3 83 1.3 E 11 11 6 6 1015.3 - -
24/05:00am 11.5 8.8 8.9 84 1.3 ENE 13 15 7 8 1015.0 - -
24/04:30am 11.9 8.9 9.1 83 1.4 ENE 15 17 8 9 1015.2 - -
24/04:00am 11.7 9.0 8.9 83 1.4 ENE 13 13 7 7 1015.5 - -
24/03:30am 12.3 9.2 8.9 80 1.7 ENE 15 19 8 10 1015.6 - -
24/03:00am 12.4 9.1 9.6 83 1.4 ENE 17 20 9 11 1015.8 1015.8 -
24/02:30am 11.1 9.1 8.7 85 1.2 NE 9 11 5 6 1015.9 - -
24/02:00am 11.2 8.4 8.6 84 1.3 NE 13 15 7 8 1016.0 - -
24/01:30am 11.4 9.9 9.0 85 1.2 NE 7 9 4 5 1016.1 - -
24/01:00am 11.1 8.2 8.2 82 1.4 NE 13 13 7 7 1016.2 - -
24/12:30am 11.6 8.8 8.6 82 1.5 ENE 13 15 7 8 1016.4 - -
24/12:00am 11.7 9.7 8.7 82 1.5 NE 9 9 5 5 1016.4 1016.4 -
 
Date/Time
WST
Temp
°C
App
Temp
°C
Dew
Point
°C
Rel
Hum
%
Delta-T
°C
Wind Press
QNH
hPa
Press
MSL
hPa
Rain since
9am
mm
Dir  Spd
km/h
Gust
km/h
Spd
kts
Gust
kts
23/11:30pm 12.5 10.6 9.1 80 1.7 NE 9 11 5 6 1016.6 - -
23/11:00pm 12.6 10.7 9.2 80 1.7 NE 9 11 5 6 1016.7 - -
23/10:30pm 12.4 10.6 9.4 82 1.5 NE 9 9 5 5 1016.5 - -
23/10:00pm 12.9 10.6 9.1 78 1.9 NE 11 13 6 7 1016.5 - -

Other Formats:

Comma delimited format used in spreadsheet applications
http://www.bom.gov.au/fwo/IDW60801/IDW60801.94300.axf

JavaScript Object Notation format (JSON) in row-major order
http://www.bom.gov.au/fwo/IDW60801/IDW60801.94300.json